North Battleford Airport
CYQW : now visible

Airfield :











YOU CAN JOIN US ON...

 
LOGIN :

Register | Disclaimer

   EN    FR    IT 

 









Legend :    VFR   Marginal VFR   IFR   Intensive IFR   Very Intensive IFR
Visi :
Ceiling :
>= 8 km
>= 3000ft
5 to 8 km
1000 to 3000 ft
1500m to 5 km
500 to 1000 ft
800 to 1500m
200 to 500 ft
< 800m
< 200 ft
Symbols :   Thunderstorms  Fog  Heavy snow  Heavy precipitations  Wind > 20 kt







- Airport Elevation : 1799 ft
- IATA code : YQW


CYQW - North Battleford

CURRENT METAR :
  • 151100Z AUTO 07003KT 9SM CLR 07/06 A2969 RMK SLP063

EXPIRED METARs :
  • 151000Z AUTO 10002KT 9SM CLR 09/06 A2969 RMK SLP061
  • 150900Z AUTO 11002KT 9SM CLR 11/07 A2969 RMK SLP061 DENSITY ALT 1900FT

TAF TAF CYQW
Valid from the 15 at 12:00 until the 16 at 00:00 UTC


151140Z 1512/1524 VRB03KT P6SM BKN240
PROB30 1512/1515 1/2SM FG SCT002
FM151800 16007KT P6SM SCT240
BECMG 1519/1521 21010KT RMK FCST BASED ON AUTO OBS. NXT FCST BY 151800Z
No reported NOTAMs for that airfield.



MET'MAP, your aeronautical weather chart ! - Copyright ORBIFLY December 2007 - Disclaimer

ORBIFLY MET'MAP TEAM :

Programming & Development : Alexandra Zaïnal
Concept & Development : Baudouin d'Aumeries
Co-Development & Prog : Marc-Olivier Méhu
Technical & hardware support : Manuel Goepfert

Contact : metmap@orbifly.com




SOURCES & CREDITS :

   NOAA       Earth
Advisory